Amunt
Inicio > meteoXarxa
Fes-te'n soci

METEOXARXA

Vilafamés
Ubicació Ajuntament
Comarca la Plana Alta
Altitud (msnm) 350
Posició geogràfica 40° 6' 52.19" N, 00° 3' 15.42" W
Model Davis Vantage VUE
Presa de dades
Font de les dades Ajuntament de Vilafamés
Estadístiques. Resum
Data Temperatura (ºC) Humitat (%) Pressió (hPa) Vent (km/h) Precipit. (mm)
Mínima Mitjana Màxima Mínima Mitjana Màxima Mínima Mitjana Màxima Predom. Mitjana Ràfega màxima Total Dies de pluja
Mínima Mitjana Màxima Mínima Mitjana Màxima
Últimes dades diàries
18-01-2017 -0,3     2,5     6,7 W 9,5 33,8 0,0  
17-01-2017 1,2     7,1     11,8 NW 23,5 72,4 0,0  
16-01-2017 9,0     11,7     15,1 NW 27,4 77,2 0,0  
15-01-2017 5,6     8,9     11,8 NNW 17,5 66,0 0,0  
14-01-2017 5,4     7,2     9,8 NW 23,0 78,9 0,0  
13-01-2017 5,7     11,1     16,6 NW 18,0 69,2 0,0  
12-01-2017 6,8     12,5     19,1 E 3,1 17,7 0,0  
11-01-2017 7,8     10,4     12,6 NNW 11,9 74,0 0,0  
10-01-2017 4,4     10,3     13,7 NW 19,0 111,0 0,0  
09-01-2017 6,0     9,4     12,8 WSW 6,4 27,4 0,0  
08-01-2017 3,7     9,3     15,8 ESE 2,3 17,7 0,0  
07-01-2017 3,2     7,6     12,6 ESE 1,8 16,1 0,0  
06-01-2017 3,2     7,9     12,4 ESE 2,3 17,7 0,0  
05-01-2017 5,3     11,8     15,8 E 4,8 38,6 0,0  
04-01-2017 4,4     9,8     16,8 WSW 3,7 19,3 0,2  
03-01-2017 3,4     8,3     13,8 E 2,9 16,1 0,2  
02-01-2017 3,3     7,1     11,7 E 1,8 17,7 0,0  
01-01-2017 2,6     6,9     12,8 E 2,1 25,7 0,2  
31-12-2016 6,6     8,9     13,4 WSW 2,4 20,9 0,0  
30-12-2016 3,8     7,7     12,8 ESE 1,8 11,3 0,0  
29-12-2016 4,5     8,9     15,6 E 1,9 11,3 0,0  
28-12-2016 5,3     9,8     14,6 ESE 2,1 14,5 0,0  
27-12-2016 6,4     10,0     15,2 E 1,9 12,9 0,0  
26-12-2016 7,4     11,4     17,1 E 1,4 8,0 0,0  
25-12-2016 8,3     12,8     17,7 SW 3,7 22,5 0,0  
24-12-2016 10,9     13,2     16,7 WSW 4,3 22,5 0,0  
23-12-2016 7,1     12,0     16,7 SE 1,4 16,1 0,0  
22-12-2016 10,0     12,1     17,1 SW 5,0 24,1 0,0  
21-12-2016 7,8     10,9     14,6 NW 10,9 45,1 0,0  
20-12-2016 8,6     10,6     14,2 NW 19,5 51,5 0,0  
19-12-2016 6,2     7,8     8,9 NE 17,7 49,9 22,2  
18-12-2016 7,2     8,1     9,2 ENE 12,9 41,8 10,6  
Dades del mes en curs (actualitzades fins l'últim dia disponible)
01/2017 -0,3 4,5 9,0 8,9 6,7 13,4 19,1   10,1 111,0 0,6  
Últimes dades mensuals
12/2016 3,8 7,5 12,1 10,6 8,9 14,6 17,7 5,1 66,0 143,4 9
11/2016 5,2 9,4 14,4 12,9 10,9 16,8 23,4 6,1 74,0 110,8 10
10/2016 10,9 14,6 17,8 18,0 16,5 22,5 27,1 2,6 35,4 24,8 7
09/2016 13,0 17,8 26,2 22,2 23,5 27,4 37,7 4,2 77,2 23,4 4
08/2016 16,7 19,3 21,8 23,9 24,4 29,0 33,2 4,4 51,5 2,2 3
Dades de l'any en curs (actualitzades fins l'últim dia disponible)
2017 -0,3 4,5 9,0 8,9 6,7 13,4 19,1   10,1 111,0 0,6  
Últimes dades anuals